sensor_id;sensor_type;location;lat;lon;timestamp;pressure;altitude;pressure_sealevel;temperature;humidity
54329;BME280;40710;51.120;13.136;2023-03-20T00:00:42;99456.06;;;13.34;62.09
54329;BME280;40710;51.120;13.136;2023-03-20T00:03:10;99455.13;;;14.17;59.66
54329;BME280;40710;51.120;13.136;2023-03-20T00:05:36;99448.50;;;14.37;58.98
54329;BME280;40710;51.120;13.136;2023-03-20T00:08:01;99453.22;;;14.06;60.11
54329;BME280;40710;51.120;13.136;2023-03-20T00:10:40;99450.19;;;13.85;60.13
54329;BME280;40710;51.120;13.136;2023-03-20T00:13:12;99454.56;;;13.99;60.43
54329;BME280;40710;51.120;13.136;2023-03-20T00:15:41;99454.91;;;13.24;62.06
54329;BME280;40710;51.120;13.136;2023-03-20T00:18:18;99460.09;;;13.40;62.37
54329;BME280;40710;51.120;13.136;2023-03-20T00:20:50;99457.00;;;13.19;62.73
54329;BME280;40710;51.120;13.136;2023-03-20T00:23:17;99465.28;;;12.98;63.63
54329;BME280;40710;51.120;13.136;2023-03-20T00:25:43;99449.72;;;13.78;61.26
54329;BME280;40710;51.120;13.136;2023-03-20T00:30:53;99454.50;;;13.45;61.83
54329;BME280;40710;51.120;13.136;2023-03-20T00:33:17;99439.84;;;13.95;60.76
54329;BME280;40710;51.120;13.136;2023-03-20T00:35:42;99443.53;;;14.32;59.48
54329;BME280;40710;51.120;13.136;2023-03-20T00:38:07;99436.38;;;14.60;58.68
54329;BME280;40710;51.120;13.136;2023-03-20T00:40:32;99441.19;;;14.41;59.15
54329;BME280;40710;51.120;13.136;2023-03-20T00:42:59;99437.41;;;15.09;57.29
54329;BME280;40710;51.120;13.136;2023-03-20T00:45:27;99439.72;;;14.49;58.73
54329;BME280;40710;51.120;13.136;2023-03-20T00:47:53;99446.91;;;13.82;60.41
54329;BME280;40710;51.120;13.136;2023-03-20T00:50:26;99432.13;;;14.57;58.05
54329;BME280;40710;51.120;13.136;2023-03-20T00:52:53;99446.38;;;13.89;60.21
54329;BME280;40710;51.120;13.136;2023-03-20T00:55:20;99438.09;;;14.61;58.28
54329;BME280;40710;51.120;13.136;2023-03-20T00:57:59;99438.22;;;14.19;59.49
54329;BME280;40710;51.120;13.136;2023-03-20T01:00:40;99440.56;;;14.37;59.05
54329;BME280;40710;51.120;13.136;2023-03-20T01:03:25;99435.78;;;14.16;59.83
54329;BME280;40710;51.120;13.136;2023-03-20T01:05:51;99436.63;;;13.77;60.12
54329;BME280;40710;51.120;13.136;2023-03-20T01:08:20;99430.44;;;14.56;58.16
54329;BME280;40710;51.120;13.136;2023-03-20T01:10:48;99434.88;;;14.43;58.48
54329;BME280;40710;51.120;13.136;2023-03-20T01:13:19;99441.91;;;13.77;60.50
54329;BME280;40710;51.120;13.136;2023-03-20T01:15:45;99437.63;;;14.54;58.63
54329;BME280;40710;51.120;13.136;2023-03-20T01:18:13;99439.22;;;14.04;59.64
54329;BME280;40710;51.120;13.136;2023-03-20T01:20:38;99435.47;;;14.34;59.17
54329;BME280;40710;51.120;13.136;2023-03-20T01:23:02;99444.50;;;13.64;61.43
54329;BME280;40710;51.120;13.136;2023-03-20T01:25:27;99435.75;;;14.82;57.73
54329;BME280;40710;51.120;13.136;2023-03-20T01:27:53;99431.31;;;14.96;57.28
54329;BME280;40710;51.120;13.136;2023-03-20T01:30:30;99438.59;;;14.79;57.99
54329;BME280;40710;51.120;13.136;2023-03-20T01:32:59;99428.78;;;14.94;56.83
54329;BME280;40710;51.120;13.136;2023-03-20T01:35:27;99433.41;;;14.78;58.06
54329;BME280;40710;51.120;13.136;2023-03-20T01:37:52;99429.59;;;14.69;57.73
54329;BME280;40710;51.120;13.136;2023-03-20T01:40:33;99430.66;;;15.05;57.08
54329;BME280;40710;51.120;13.136;2023-03-20T01:43:13;99429.28;;;14.86;57.79
54329;BME280;40710;51.120;13.136;2023-03-20T01:45:48;99432.44;;;14.40;58.97
54329;BME280;40710;51.120;13.136;2023-03-20T01:48:17;99433.06;;;14.31;59.09
54329;BME280;40710;51.120;13.136;2023-03-20T01:50:42;99431.22;;;14.71;57.81
54329;BME280;40710;51.120;13.136;2023-03-20T01:53:16;99437.19;;;14.35;59.57
54329;BME280;40710;51.120;13.136;2023-03-20T01:55:44;99428.75;;;15.07;57.34
54329;BME280;40710;51.120;13.136;2023-03-20T01:58:16;99444.56;;;14.30;59.17
54329;BME280;40710;51.120;13.136;2023-03-20T02:00:43;99438.28;;;14.84;57.40
54329;BME280;40710;51.120;13.136;2023-03-20T02:03:09;99448.09;;;14.43;58.33
54329;BME280;40710;51.120;13.136;2023-03-20T02:05:35;99451.53;;;14.18;60.02
54329;BME280;40710;51.120;13.136;2023-03-20T02:08:12;99442.94;;;14.93;57.42
54329;BME280;40710;51.120;13.136;2023-03-20T02:10:40;99452.91;;;13.84;60.92
54329;BME280;40710;51.120;13.136;2023-03-20T02:13:06;99458.25;;;13.69;61.38
54329;BME280;40710;51.120;13.136;2023-03-20T02:15:32;99453.88;;;14.23;60.39
54329;BME280;40710;51.120;13.136;2023-03-20T02:17:58;99452.66;;;14.41;59.64
54329;BME280;40710;51.120;13.136;2023-03-20T02:26:28;99453.50;;;13.74;60.35
54329;BME280;40710;51.120;13.136;2023-03-20T02:31:57;99449.84;;;14.17;59.48
54329;BME280;40710;51.120;13.136;2023-03-20T02:38:01;99449.94;;;14.15;59.88
54329;BME280;40710;51.120;13.136;2023-03-20T02:55:31;99434.47;;;15.01;56.93
54329;BME280;40710;51.120;13.136;2023-03-20T03:00:46;99430.78;;;14.78;57.42
54329;BME280;40710;51.120;13.136;2023-03-20T03:03:19;99426.41;;;14.51;58.20
54329;BME280;40710;51.120;13.136;2023-03-20T03:05:53;99431.53;;;14.80;57.51
54329;BME280;40710;51.120;13.136;2023-03-20T03:08:23;99420.19;;;14.90;57.43
54329;BME280;40710;51.120;13.136;2023-03-20T03:11:15;99421.69;;;14.69;57.58
54329;BME280;40710;51.120;13.136;2023-03-20T03:13:51;99424.69;;;14.37;58.47
54329;BME280;40710;51.120;13.136;2023-03-20T03:16:27;99424.13;;;14.72;57.68
54329;BME280;40710;51.120;13.136;2023-03-20T03:19:02;99427.03;;;14.54;58.26
54329;BME280;40710;51.120;13.136;2023-03-20T03:21:31;99424.09;;;14.85;56.86
54329;BME280;40710;51.120;13.136;2023-03-20T03:23:56;99426.00;;;15.08;56.48
54329;BME280;40710;51.120;13.136;2023-03-20T03:26:27;99424.34;;;14.82;57.01
54329;BME280;40710;51.120;13.136;2023-03-20T03:29:00;99421.16;;;14.89;57.28
54329;BME280;40710;51.120;13.136;2023-03-20T03:31:28;99429.19;;;14.88;57.17
54329;BME280;40710;51.120;13.136;2023-03-20T03:33:56;99426.44;;;14.77;57.04
54329;BME280;40710;51.120;13.136;2023-03-20T03:39:27;99434.13;;;14.54;58.04
54329;BME280;40710;51.120;13.136;2023-03-20T03:42:04;99427.28;;;15.03;56.71
54329;BME280;40710;51.120;13.136;2023-03-20T03:44:45;99427.41;;;14.88;56.93
54329;BME280;40710;51.120;13.136;2023-03-20T03:47:18;99420.41;;;14.87;57.07
54329;BME280;40710;51.120;13.136;2023-03-20T03:49:52;99427.63;;;14.85;56.83
54329;BME280;40710;51.120;13.136;2023-03-20T03:52:23;99428.06;;;14.26;57.68
54329;BME280;40710;51.120;13.136;2023-03-20T03:54:53;99434.25;;;14.52;57.58
54329;BME280;40710;51.120;13.136;2023-03-20T03:57:30;99436.66;;;13.90;59.70
54329;BME280;40710;51.120;13.136;2023-03-20T04:00:02;99434.19;;;14.27;58.52
54329;BME280;40710;51.120;13.136;2023-03-20T04:02:29;99426.56;;;14.75;57.20
54329;BME280;40710;51.120;13.136;2023-03-20T04:04:55;99431.16;;;14.33;58.45
54329;BME280;40710;51.120;13.136;2023-03-20T04:07:20;99431.59;;;14.40;57.49
54329;BME280;40710;51.120;13.136;2023-03-20T04:09:48;99439.00;;;14.47;57.97
54329;BME280;40710;51.120;13.136;2023-03-20T04:14:56;99432.63;;;14.37;58.02
54329;BME280;40710;51.120;13.136;2023-03-20T04:17:21;99436.03;;;14.52;57.23
54329;BME280;40710;51.120;13.136;2023-03-20T04:19:45;99436.25;;;14.36;57.90
54329;BME280;40710;51.120;13.136;2023-03-20T04:22:11;99436.16;;;14.50;57.22
54329;BME280;40710;51.120;13.136;2023-03-20T04:24:36;99438.63;;;14.13;58.07
54329;BME280;40710;51.120;13.136;2023-03-20T04:27:00;99441.00;;;14.44;57.75
54329;BME280;40710;51.120;13.136;2023-03-20T04:29:25;99430.19;;;14.34;57.39
54329;BME280;40710;51.120;13.136;2023-03-20T04:31:50;99442.38;;;14.36;59.08
54329;BME280;40710;51.120;13.136;2023-03-20T04:34:15;99444.38;;;14.33;58.75
54329;BME280;40710;51.120;13.136;2023-03-20T04:36:40;99443.50;;;14.19;58.35
54329;BME280;40710;51.120;13.136;2023-03-20T04:39:05;99443.22;;;14.37;57.49
54329;BME280;40710;51.120;13.136;2023-03-20T04:41:30;99451.78;;;14.41;57.48
54329;BME280;40710;51.120;13.136;2023-03-20T04:43:55;99447.66;;;14.36;57.73
54329;BME280;40710;51.120;13.136;2023-03-20T04:46:19;99451.50;;;14.05;57.63
54329;BME280;40710;51.120;13.136;2023-03-20T04:48:44;99463.69;;;14.73;56.42
54329;BME280;40710;51.120;13.136;2023-03-20T04:51:09;99450.25;;;14.89;55.95
54329;BME280;40710;51.120;13.136;2023-03-20T04:53:33;99450.53;;;14.46;56.87
54329;BME280;40710;51.120;13.136;2023-03-20T04:55:58;99459.78;;;14.66;56.35
54329;BME280;40710;51.120;13.136;2023-03-20T04:58:23;99463.22;;;14.41;57.16
54329;BME280;40710;51.120;13.136;2023-03-20T05:00:49;99456.66;;;14.47;56.91
54329;BME280;40710;51.120;13.136;2023-03-20T05:03:14;99471.16;;;14.54;56.98
54329;BME280;40710;51.120;13.136;2023-03-20T05:05:38;99476.00;;;14.34;57.59
54329;BME280;40710;51.120;13.136;2023-03-20T05:08:04;99482.66;;;14.27;58.21
54329;BME280;40710;51.120;13.136;2023-03-20T05:10:29;99478.59;;;14.22;57.94
54329;BME280;40710;51.120;13.136;2023-03-20T05:12:53;99473.00;;;14.66;56.76
54329;BME280;40710;51.120;13.136;2023-03-20T05:15:19;99471.16;;;14.54;56.98
54329;BME280;40710;51.120;13.136;2023-03-20T05:17:44;99487.81;;;13.47;59.70
54329;BME280;40710;51.120;13.136;2023-03-20T05:20:09;99484.09;;;14.18;58.93
54329;BME280;40710;51.120;13.136;2023-03-20T05:22:34;99492.84;;;14.06;58.91
54329;BME280;40710;51.120;13.136;2023-03-20T05:24:59;99493.09;;;13.89;59.87
54329;BME280;40710;51.120;13.136;2023-03-20T05:27:25;99491.31;;;14.29;58.63
54329;BME280;40710;51.120;13.136;2023-03-20T05:29:49;99491.94;;;14.20;58.62
54329;BME280;40710;51.120;13.136;2023-03-20T05:32:14;99487.28;;;14.64;57.04
54329;BME280;40710;51.120;13.136;2023-03-20T05:34:38;99490.72;;;14.51;57.74
54329;BME280;40710;51.120;13.136;2023-03-20T05:37:03;99502.53;;;14.06;58.59
54329;BME280;40710;51.120;13.136;2023-03-20T05:39:28;99496.44;;;14.45;58.03
54329;BME280;40710;51.120;13.136;2023-03-20T05:41:54;99492.69;;;14.75;56.98
54329;BME280;40710;51.120;13.136;2023-03-20T05:44:18;99496.59;;;14.69;57.00
54329;BME280;40710;51.120;13.136;2023-03-20T05:46:44;99497.22;;;14.60;57.35
54329;BME280;40710;51.120;13.136;2023-03-20T05:49:08;99504.09;;;13.95;58.41
54329;BME280;40710;51.120;13.136;2023-03-20T05:51:33;99500.38;;;14.25;57.22
54329;BME280;40710;51.120;13.136;2023-03-20T05:53:58;99501.69;;;14.98;56.50
54329;BME280;40710;51.120;13.136;2023-03-20T05:56:23;99516.25;;;13.56;59.73
54329;BME280;40710;51.120;13.136;2023-03-20T05:58:47;99520.34;;;13.33;61.24
54329;BME280;40710;51.120;13.136;2023-03-20T06:01:12;99509.38;;;14.23;58.56
54329;BME280;40710;51.120;13.136;2023-03-20T06:03:39;99513.94;;;14.21;58.57
54329;BME280;40710;51.120;13.136;2023-03-20T06:06:04;99509.56;;;14.19;58.01
54329;BME280;40710;51.120;13.136;2023-03-20T06:08:29;99513.84;;;14.62;57.44
54329;BME280;40710;51.120;13.136;2023-03-20T06:10:54;99512.69;;;13.99;58.68
54329;BME280;40710;51.120;13.136;2023-03-20T06:13:18;99516.91;;;14.29;58.76
54329;BME280;40710;51.120;13.136;2023-03-20T06:15:43;99514.88;;;14.60;57.26
54329;BME280;40710;51.120;13.136;2023-03-20T06:18:07;99516.41;;;15.15;55.78
54329;BME280;40710;51.120;13.136;2023-03-20T06:20:32;99516.69;;;14.72;56.75
54329;BME280;40710;51.120;13.136;2023-03-20T06:22:57;99513.44;;;14.94;56.20
54329;BME280;40710;51.120;13.136;2023-03-20T06:25:21;99515.72;;;14.60;56.91
54329;BME280;40710;51.120;13.136;2023-03-20T06:27:46;99522.84;;;15.11;55.28
54329;BME280;40710;51.120;13.136;2023-03-20T06:30:12;99537.97;;;13.47;59.62
54329;BME280;40710;51.120;13.136;2023-03-20T06:32:36;99521.50;;;14.92;56.22
54329;BME280;40710;51.120;13.136;2023-03-20T06:35:02;99519.56;;;15.33;55.06
54329;BME280;40710;51.120;13.136;2023-03-20T06:37:29;99522.00;;;15.23;55.74
54329;BME280;40710;51.120;13.136;2023-03-20T06:39:54;99534.28;;;14.46;57.44
54329;BME280;40710;51.120;13.136;2023-03-20T06:42:19;99523.38;;;14.78;57.38
54329;BME280;40710;51.120;13.136;2023-03-20T06:44:43;99547.28;;;14.09;58.82
54329;BME280;40710;51.120;13.136;2023-03-20T06:47:08;99535.81;;;14.23;58.07
54329;BME280;40710;51.120;13.136;2023-03-20T06:49:32;99527.19;;;14.73;56.42
54329;BME280;40710;51.120;13.136;2023-03-20T06:51:57;99529.00;;;15.11;55.92
54329;BME280;40710;51.120;13.136;2023-03-20T06:54:23;99545.19;;;14.14;58.89
54329;BME280;40710;51.120;13.136;2023-03-20T06:56:47;99525.81;;;14.93;56.31
54329;BME280;40710;51.120;13.136;2023-03-20T06:59:12;99525.50;;;14.98;55.95
54329;BME280;40710;51.120;13.136;2023-03-20T07:01:37;99531.88;;;14.96;55.83
54329;BME280;40710;51.120;13.136;2023-03-20T07:04:01;99529.63;;;14.77;57.30
54329;BME280;40710;51.120;13.136;2023-03-20T07:06:26;99535.34;;;15.09;56.37
54329;BME280;40710;51.120;13.136;2023-03-20T07:08:51;99528.25;;;15.22;55.97
54329;BME280;40710;51.120;13.136;2023-03-20T07:11:16;99548.06;;;13.96;58.63
54329;BME280;40710;51.120;13.136;2023-03-20T07:13:41;99550.41;;;14.28;59.00
54329;BME280;40710;51.120;13.136;2023-03-20T07:16:07;99541.56;;;14.69;57.03
54329;BME280;40710;51.120;13.136;2023-03-20T07:18:31;99546.91;;;15.08;56.48
54329;BME280;40710;51.120;13.136;2023-03-20T07:21:01;99544.97;;;14.84;56.70
54329;BME280;40710;51.120;13.136;2023-03-20T07:23:28;99547.75;;;14.55;58.15
54329;BME280;40710;51.120;13.136;2023-03-20T07:25:53;99542.75;;;14.91;57.05
54329;BME280;40710;51.120;13.136;2023-03-20T07:28:18;99561.59;;;13.77;59.16
54329;BME280;40710;51.120;13.136;2023-03-20T07:30:43;99551.66;;;15.03;57.69
54329;BME280;40710;51.120;13.136;2023-03-20T07:33:08;99558.31;;;15.21;57.12
54329;BME280;40710;51.120;13.136;2023-03-20T07:35:33;99561.19;;;14.92;57.75
54329;BME280;40710;51.120;13.136;2023-03-20T07:37:57;99568.03;;;14.69;58.30
54329;BME280;40710;51.120;13.136;2023-03-20T07:40:22;99555.22;;;15.79;55.84
54329;BME280;40710;51.120;13.136;2023-03-20T07:42:47;99558.94;;;15.76;56.17
54329;BME280;40710;51.120;13.136;2023-03-20T07:45:12;99550.88;;;15.78;55.80
54329;BME280;40710;51.120;13.136;2023-03-20T07:47:37;99558.47;;;15.82;55.86
54329;BME280;40710;51.120;13.136;2023-03-20T07:50:02;99554.06;;;16.07;55.72
54329;BME280;40710;51.120;13.136;2023-03-20T07:52:26;99549.28;;;15.75;55.83
54329;BME280;40710;51.120;13.136;2023-03-20T07:54:51;99556.72;;;15.31;56.78
54329;BME280;40710;51.120;13.136;2023-03-20T07:57:15;99558.28;;;15.73;56.24
54329;BME280;40710;51.120;13.136;2023-03-20T07:59:40;99555.34;;;16.01;55.79
54329;BME280;40710;51.120;13.136;2023-03-20T08:02:05;99563.63;;;15.34;56.65
54329;BME280;40710;51.120;13.136;2023-03-20T08:04:30;99560.41;;;15.67;56.96
54329;BME280;40710;51.120;13.136;2023-03-20T08:06:54;99556.28;;;16.00;55.42
54329;BME280;40710;51.120;13.136;2023-03-20T08:09:19;99564.00;;;15.66;57.04
54329;BME280;40710;51.120;13.136;2023-03-20T08:11:44;99565.06;;;15.51;57.72
54329;BME280;40710;51.120;13.136;2023-03-20T08:14:08;99570.47;;;15.49;57.30
54329;BME280;40710;51.120;13.136;2023-03-20T08:16:33;99563.31;;;15.13;58.04
54329;BME280;40710;51.120;13.136;2023-03-20T08:18:58;99551.81;;;16.14;55.70
54329;BME280;40710;51.120;13.136;2023-03-20T08:21:25;99544.28;;;16.56;54.29
54329;BME280;40710;51.120;13.136;2023-03-20T08:23:50;99554.06;;;16.07;55.80
54329;BME280;40710;51.120;13.136;2023-03-20T08:26:15;99559.53;;;16.41;55.09
54329;BME280;40710;51.120;13.136;2023-03-20T08:28:40;99569.75;;;15.47;57.54
54329;BME280;40710;51.120;13.136;2023-03-20T08:31:08;99563.94;;;15.55;57.64
54329;BME280;40710;51.120;13.136;2023-03-20T08:33:33;99560.41;;;15.67;57.31
54329;BME280;40710;51.120;13.136;2023-03-20T08:35:58;99566.19;;;16.22;55.44
54329;BME280;40710;51.120;13.136;2023-03-20T08:38:23;99561.31;;;16.40;55.23
54329;BME280;40710;51.120;13.136;2023-03-20T08:40:47;99572.81;;;16.04;56.21
54329;BME280;40710;51.120;13.136;2023-03-20T08:43:12;99565.09;;;16.25;55.58
54329;BME280;40710;51.120;13.136;2023-03-20T08:45:36;99576.53;;;15.39;57.96
54329;BME280;40710;51.120;13.136;2023-03-20T08:48:01;99566.81;;;16.26;56.00
54329;BME280;40710;51.120;13.136;2023-03-20T08:50:26;99564.75;;;16.05;56.78
54329;BME280;40710;51.120;13.136;2023-03-20T08:52:51;99565.56;;;16.43;55.81
54329;BME280;40710;51.120;13.136;2023-03-20T08:55:16;99560.41;;;16.53;55.37
54329;BME280;40710;51.120;13.136;2023-03-20T08:57:41;99562.53;;;16.36;55.19
54329;BME280;40710;51.120;13.136;2023-03-20T09:00:08;99564.78;;;16.54;55.32
54329;BME280;40710;51.120;13.136;2023-03-20T09:02:33;99557.47;;;17.04;55.45
54329;BME280;40710;51.120;13.136;2023-03-20T09:04:58;99558.44;;;17.14;55.03
54329;BME280;40710;51.120;13.136;2023-03-20T09:07:23;99564.97;;;16.75;56.31
54329;BME280;40710;51.120;13.136;2023-03-20T09:09:47;99572.66;;;16.42;57.74
54329;BME280;40710;51.120;13.136;2023-03-20T09:12:12;99576.38;;;16.29;57.75
54329;BME280;40710;51.120;13.136;2023-03-20T09:14:37;99576.28;;;16.41;57.50
54329;BME280;40710;51.120;13.136;2023-03-20T09:17:01;99580.59;;;16.55;57.58
54329;BME280;40710;51.120;13.136;2023-03-20T09:19:26;99592.88;;;15.95;58.19
54329;BME280;40710;51.120;13.136;2023-03-20T09:21:50;99595.31;;;15.98;57.88
54329;BME280;40710;51.120;13.136;2023-03-20T09:24:15;99601.00;;;15.81;58.28
54329;BME280;40710;51.120;13.136;2023-03-20T09:26:39;99602.78;;;15.55;58.32
54329;BME280;40710;51.120;13.136;2023-03-20T09:29:04;99598.56;;;15.52;58.58
54329;BME280;40710;51.120;13.136;2023-03-20T09:31:29;99618.69;;;14.22;62.78
54329;BME280;40710;51.120;13.136;2023-03-20T09:33:54;99620.72;;;14.45;62.27
54329;BME280;40710;51.120;13.136;2023-03-20T09:36:19;99607.19;;;14.77;61.63
54329;BME280;40710;51.120;13.136;2023-03-20T09:38:44;99621.47;;;14.20;62.39
54329;BME280;40710;51.120;13.136;2023-03-20T09:41:19;99611.56;;;15.04;60.35
54329;BME280;40710;51.120;13.136;2023-03-20T09:46:49;99605.88;;;15.61;57.36
54329;BME280;40710;51.120;13.136;2023-03-20T09:49:47;99597.56;;;16.53;55.80
54329;BME280;40710;51.120;13.136;2023-03-20T09:54:50;99613.09;;;16.09;57.94
54329;BME280;40710;51.120;13.136;2023-03-20T09:57:24;99617.63;;;15.57;57.46
54329;BME280;40710;51.120;13.136;2023-03-20T09:59:54;99637.19;;;14.22;62.56
54329;BME280;40710;51.120;13.136;2023-03-20T10:02:51;99602.41;;;16.35;56.52
54329;BME280;40710;51.120;13.136;2023-03-20T10:05:36;99607.78;;;16.46;56.52
54329;BME280;40710;51.120;13.136;2023-03-20T10:08:06;99604.28;;;16.45;56.17
54329;BME280;40710;51.120;13.136;2023-03-20T10:10:50;99610.06;;;16.39;56.72
54329;BME280;40710;51.120;13.136;2023-03-20T10:16:23;99617.19;;;15.63;57.68
54329;BME280;40710;51.120;13.136;2023-03-20T10:19:20;99618.91;;;15.64;59.31
54329;BME280;40710;51.120;13.136;2023-03-20T10:21:50;99611.06;;;16.50;56.73
54329;BME280;40710;51.120;13.136;2023-03-20T10:24:27;99625.78;;;15.28;59.20
54329;BME280;40710;51.120;13.136;2023-03-20T10:26:56;99632.28;;;14.84;60.54
54329;BME280;40710;51.120;13.136;2023-03-20T10:29:53;99630.59;;;14.56;61.92
54329;BME280;40710;51.120;13.136;2023-03-20T10:35:10;99596.41;;;16.68;55.91
54329;BME280;40710;51.120;13.136;2023-03-20T10:38:06;99608.25;;;16.40;57.17
54329;BME280;40710;51.120;13.136;2023-03-20T10:40:36;99597.97;;;16.84;55.67
54329;BME280;40710;51.120;13.136;2023-03-20T10:43:31;99616.13;;;15.53;58.24
54329;BME280;40710;51.120;13.136;2023-03-20T10:46:07;99624.69;;;14.92;61.27
54329;BME280;40710;51.120;13.136;2023-03-20T10:48:48;99617.19;;;14.99;61.13
54329;BME280;40710;51.120;13.136;2023-03-20T10:51:17;99602.59;;;16.44;57.39
54329;BME280;40710;51.120;13.136;2023-03-20T10:53:49;99589.28;;;16.93;55.63
54329;BME280;40710;51.120;13.136;2023-03-20T10:56:43;99600.50;;;16.61;56.56
54329;BME280;40710;51.120;13.136;2023-03-20T10:59:22;99597.03;;;16.72;56.70
54329;BME280;40710;51.120;13.136;2023-03-20T11:01:47;99593.75;;;16.68;56.78
54329;BME280;40710;51.120;13.136;2023-03-20T11:04:12;99610.19;;;14.85;61.19
54329;BME280;40710;51.120;13.136;2023-03-20T11:06:54;99608.31;;;15.64;60.89
54329;BME280;40710;51.120;13.136;2023-03-20T11:09:23;99606.38;;;15.66;59.40
54329;BME280;40710;51.120;13.136;2023-03-20T11:11:52;99601.44;;;16.12;58.90
54329;BME280;40710;51.120;13.136;2023-03-20T11:14:22;99598.84;;;16.23;58.36
54329;BME280;40710;51.120;13.136;2023-03-20T11:16:50;99598.13;;;14.94;60.54
54329;BME280;40710;51.120;13.136;2023-03-20T11:19:15;99592.91;;;16.32;58.65
54329;BME280;40710;51.120;13.136;2023-03-20T11:21:52;99588.38;;;16.45;58.84
54329;BME280;40710;51.120;13.136;2023-03-20T11:24:41;99591.81;;;16.35;59.03
54329;BME280;40710;51.120;13.136;2023-03-20T11:27:14;99575.59;;;17.44;56.82
54329;BME280;40710;51.120;13.136;2023-03-20T11:29:41;99590.47;;;15.92;59.50
54329;BME280;40710;51.120;13.136;2023-03-20T11:34:53;99583.16;;;16.68;58.75
54329;BME280;40710;51.120;13.136;2023-03-20T11:37:27;99579.44;;;17.17;57.81
54329;BME280;40710;51.120;13.136;2023-03-20T11:39:59;99568.97;;;17.27;57.27
54329;BME280;40710;51.120;13.136;2023-03-20T11:42:27;99558.19;;;17.85;54.66
54329;BME280;40710;51.120;13.136;2023-03-20T11:44:57;99556.41;;;17.74;55.08
54329;BME280;40710;51.120;13.136;2023-03-20T11:47:25;99558.78;;;16.98;56.35
54329;BME280;40710;51.120;13.136;2023-03-20T11:50:00;99554.94;;;17.48;55.98
54329;BME280;40710;51.120;13.136;2023-03-20T11:52:31;99566.19;;;16.82;57.16
54329;BME280;40710;51.120;13.136;2023-03-20T11:54:59;99552.63;;;16.98;56.58
54329;BME280;40710;51.120;13.136;2023-03-20T11:57:35;99548.16;;;17.77;54.76
54329;BME280;40710;51.120;13.136;2023-03-20T12:00:20;99545.03;;;17.84;54.94
54329;BME280;40710;51.120;13.136;2023-03-20T12:02:46;99529.09;;;18.27;53.17
54329;BME280;40710;51.120;13.136;2023-03-20T12:05:32;99551.69;;;17.33;55.42
54329;BME280;40710;51.120;13.136;2023-03-20T12:08:23;99535.13;;;17.97;53.82
54329;BME280;40710;51.120;13.136;2023-03-20T12:10:59;99537.31;;;17.69;54.51
54329;BME280;40710;51.120;13.136;2023-03-20T12:13:32;99543.47;;;17.81;54.66
54329;BME280;40710;51.120;13.136;2023-03-20T12:16:09;99545.44;;;17.45;54.43
54329;BME280;40710;51.120;13.136;2023-03-20T12:18:44;99535.75;;;17.78;54.21
54329;BME280;40710;51.120;13.136;2023-03-20T12:21:11;99535.22;;;18.07;53.52
54329;BME280;40710;51.120;13.136;2023-03-20T12:23:44;99536.00;;;17.64;54.78
54329;BME280;40710;51.120;13.136;2023-03-20T12:26:14;99542.97;;;17.99;53.85
54329;BME280;40710;51.120;13.136;2023-03-20T12:31:43;99543.72;;;17.55;55.63
54329;BME280;40710;51.120;13.136;2023-03-20T12:34:26;99530.28;;;18.02;53.83
54329;BME280;40710;51.120;13.136;2023-03-20T12:36:54;99535.50;;;17.47;54.66
54329;BME280;40710;51.120;13.136;2023-03-20T12:39:23;99537.41;;;17.00;55.65
54329;BME280;40710;51.120;13.136;2023-03-20T12:42:05;99532.81;;;16.91;56.09
54329;BME280;40710;51.120;13.136;2023-03-20T12:58:43;99502.88;;;17.68;54.61
54329;BME280;40710;51.120;13.136;2023-03-20T13:01:35;99504.84;;;17.43;55.26
54329;BME280;40710;51.120;13.136;2023-03-20T13:06:59;99503.78;;;17.00;55.24
54329;BME280;40710;51.120;13.136;2023-03-20T13:12:29;99487.28;;;17.86;53.63
54329;BME280;40710;51.120;13.136;2023-03-20T13:15:02;99491.97;;;17.82;53.49
54329;BME280;40710;51.120;13.136;2023-03-20T13:17:49;99487.66;;;17.70;53.47
54329;BME280;40710;51.120;13.136;2023-03-20T13:20:30;99496.75;;;17.67;54.09
54329;BME280;40710;51.120;13.136;2023-03-20T13:28:50;99490.94;;;17.62;53.38
54329;BME280;40710;51.120;13.136;2023-03-20T13:31:46;99492.25;;;17.68;53.62
54329;BME280;40710;51.120;13.136;2023-03-20T13:34:30;99483.22;;;17.48;54.00
54329;BME280;40710;51.120;13.136;2023-03-20T13:37:11;99494.09;;;17.11;55.55
54329;BME280;40710;51.120;13.136;2023-03-20T13:39:54;99485.78;;;17.04;54.63
54329;BME280;40710;51.120;13.136;2023-03-20T13:42:29;99475.13;;;17.61;53.28
54329;BME280;40710;51.120;13.136;2023-03-20T13:45:04;99465.00;;;17.32;54.06
54329;BME280;40710;51.120;13.136;2023-03-20T13:47:30;99466.16;;;17.73;53.18
54329;BME280;40710;51.120;13.136;2023-03-20T13:52:44;99474.03;;;17.41;54.07
54329;BME280;40710;51.120;13.136;2023-03-20T13:58:13;99473.69;;;17.00;54.92
54329;BME280;40710;51.120;13.136;2023-03-20T14:00:53;99474.84;;;16.73;56.59
54329;BME280;40710;51.120;13.136;2023-03-20T14:03:30;99474.69;;;16.99;55.97
54329;BME280;40710;51.120;13.136;2023-03-20T14:05:56;99475.81;;;16.72;56.68
54329;BME280;40710;51.120;13.136;2023-03-20T14:11:35;99473.69;;;16.89;56.17
54329;BME280;40710;51.120;13.136;2023-03-20T14:14:07;99484.25;;;16.66;57.06
54329;BME280;40710;51.120;13.136;2023-03-20T14:16:35;99477.53;;;16.85;56.56
54329;BME280;40710;51.120;13.136;2023-03-20T14:19:16;99481.06;;;16.85;57.34
54329;BME280;40710;51.120;13.136;2023-03-20T14:21:47;99487.97;;;16.63;58.50
54329;BME280;40710;51.120;13.136;2023-03-20T14:24:15;99491.41;;;16.41;59.46
54329;BME280;40710;51.120;13.136;2023-03-20T14:26:42;99494.59;;;16.58;59.17
54329;BME280;40710;51.120;13.136;2023-03-20T14:31:39;99488.16;;;16.85;58.30
54329;BME280;40710;51.120;13.136;2023-03-20T14:36:55;99499.88;;;16.47;59.13